createdAt,value
2019-02-20T00:00:44.822Z,73.19
2019-02-20T00:01:44.800Z,72.98
2019-02-20T00:02:44.797Z,72.85
2019-02-20T00:03:44.782Z,72.95
2019-02-20T00:04:44.805Z,72.64
2019-02-20T00:05:44.763Z,73.16
2019-02-20T00:06:44.749Z,72.98
2019-02-20T00:07:44.733Z,72.85
2019-02-20T00:08:44.722Z,73.05
2019-02-20T00:09:44.746Z,72.74
2019-02-20T00:10:44.710Z,72.95
2019-02-20T00:11:44.690Z,73.71
2019-02-20T00:12:44.691Z,73.67
2019-02-20T00:13:44.712Z,73.26
2019-02-20T00:14:44.695Z,73.81
2019-02-20T00:15:44.684Z,73.71
2019-02-20T00:16:44.643Z,73.88
2019-02-20T00:17:44.624Z,73.16
2019-02-20T00:18:44.612Z,73.16
2019-02-20T00:19:44.633Z,73.98
2019-02-20T00:20:44.590Z,73.81
2019-02-20T00:21:44.595Z,73.81
2019-02-20T00:22:44.573Z,74.02
2019-02-20T00:23:44.579Z,74.22
2019-02-20T00:24:44.589Z,74.02
2019-02-20T00:25:44.537Z,73.91
2019-02-20T00:26:44.533Z,74.12
2019-02-20T00:27:44.514Z,74.12
2019-02-20T00:28:44.516Z,73.81
2019-02-20T00:29:44.527Z,73.91
2019-02-20T00:30:44.515Z,73.91
2019-02-20T00:31:44.473Z,73.81
2019-02-20T00:32:44.463Z,73.67
2019-02-20T00:33:44.458Z,73.67
2019-02-20T00:34:44.453Z,74.12
2019-02-20T00:35:44.454Z,73.60
2019-02-20T00:36:44.420Z,73.81
2019-02-20T00:37:44.405Z,73.71
2019-02-20T00:38:44.397Z,74.02
2019-02-20T00:39:44.384Z,73.77
2019-02-20T00:40:44.402Z,73.60
2019-02-20T00:41:44.360Z,73.60
2019-02-20T00:42:44.358Z,73.88
2019-02-20T00:43:44.335Z,73.88
2019-02-20T00:44:44.325Z,73.88
2019-02-20T00:45:44.355Z,73.91
2019-02-20T00:46:44.302Z,73.77
2019-02-20T00:47:44.290Z,73.98
2019-02-20T00:48:44.279Z,74.08
2019-02-20T00:49:44.271Z,73.98
2019-02-20T00:50:44.294Z,74.33
2019-02-20T00:51:44.247Z,74.50
2019-02-20T00:52:49.971Z,74.50
2019-02-20T00:53:45.231Z,74.22
2019-02-20T00:54:44.219Z,74.43
2019-02-20T00:55:44.288Z,74.63
2019-02-20T00:56:44.194Z,74.63
2019-02-20T00:57:44.181Z,74.53
2019-02-20T00:58:44.172Z,74.63
2019-02-20T00:59:44.160Z,75.15
2019-02-20T01:00:44.171Z,75.05
2019-02-20T01:01:44.171Z,75.01
2019-02-20T01:02:44.131Z,75.05
2019-02-20T01:03:44.131Z,74.50
2019-02-20T01:04:44.114Z,74.43
2019-02-20T01:05:44.126Z,75.05
2019-02-20T01:06:45.309Z,75.01
2019-02-20T01:07:44.074Z,75.05
2019-02-20T01:08:44.080Z,74.91
2019-02-20T01:09:44.055Z,74.95
2019-02-20T01:10:44.041Z,74.95
2019-02-20T01:11:44.061Z,75.15
2019-02-20T01:12:44.018Z,75.01
2019-02-20T01:13:44.013Z,75.36
2019-02-20T01:14:44.018Z,75.36
2019-02-20T01:15:43.999Z,74.84
2019-02-20T01:16:44.004Z,75.26
2019-02-20T01:17:43.966Z,75.53
2019-02-20T01:18:43.954Z,74.60
2019-02-20T01:19:43.944Z,75.05
2019-02-20T01:20:43.936Z,74.60
2019-02-20T01:21:43.949Z,75.01
2019-02-20T01:22:43.905Z,75.12
2019-02-20T01:23:43.911Z,75.01
2019-02-20T01:24:43.885Z,75.01
2019-02-20T01:25:43.874Z,74.91
2019-02-20T01:26:43.887Z,74.88
2019-02-20T01:27:43.851Z,74.40
2019-02-20T01:28:43.845Z,74.57
2019-02-20T01:29:43.828Z,74.29
2019-02-20T01:30:43.828Z,74.46
2019-02-20T01:31:43.839Z,74.57
2019-02-20T01:32:43.795Z,74.15
2019-02-20T01:33:43.785Z,74.46
2019-02-20T01:34:43.775Z,74.46
2019-02-20T01:35:43.764Z,74.36
2019-02-20T01:36:43.783Z,74.15
2019-02-20T01:37:43.743Z,74.05
2019-02-20T01:38:43.730Z,73.85
2019-02-20T01:39:43.722Z,73.85
2019-02-20T01:40:43.711Z,74.05
2019-02-20T01:41:43.730Z,73.85
2019-02-20T01:42:43.711Z,73.95
2019-02-20T01:43:43.674Z,74.15
2019-02-20T01:44:43.665Z,74.05
2019-02-20T01:45:43.676Z,74.46
2019-02-20T01:46:43.640Z,73.95
2019-02-20T01:47:43.657Z,74.26
2019-02-20T01:48:43.620Z,74.67
2019-02-20T01:49:43.609Z,74.36
2019-02-20T01:50:43.612Z,74.36
2019-02-20T01:51:45.041Z,74.36
2019-02-20T01:52:43.601Z,74.36
2019-02-20T01:53:43.573Z,74.57
2019-02-20T01:54:43.568Z,74.98
2019-02-20T01:55:43.560Z,75.09
2019-02-20T01:56:43.545Z,74.67
2019-02-20T01:57:43.545Z,74.77
2019-02-20T01:58:43.505Z,74.46
2019-02-20T01:59:43.505Z,74.36
2019-02-20T02:00:43.484Z,74.36
2019-02-20T02:01:43.479Z,74.36
2019-02-20T02:02:43.466Z,74.67
2019-02-20T02:03:43.477Z,74.77
2019-02-20T02:04:43.442Z,75.12
2019-02-20T02:05:43.434Z,74.57
2019-02-20T02:06:43.419Z,75.19
2019-02-20T02:07:43.410Z,75.09
2019-02-20T02:08:43.420Z,75.29
2019-02-20T02:09:43.385Z,75.09
2019-02-20T02:10:43.382Z,74.98
2019-02-20T02:11:43.361Z,74.98
2019-02-20T02:12:43.361Z,75.09
2019-02-20T02:13:43.365Z,74.77
2019-02-20T02:14:43.338Z,74.46
2019-02-20T02:15:43.320Z,74.46
2019-02-20T02:16:43.308Z,74.57
2019-02-20T02:17:43.298Z,74.57
2019-02-20T02:18:43.346Z,74.22
2019-02-20T02:19:43.282Z,74.26
2019-02-20T02:20:43.267Z,74.26
2019-02-20T02:21:43.263Z,74.26
2019-02-20T02:22:43.241Z,74.57
2019-02-20T02:23:43.257Z,74.88
2019-02-20T02:24:43.215Z,74.77
2019-02-20T02:25:43.206Z,74.98
2019-02-20T02:26:43.196Z,75.19
2019-02-20T02:27:43.185Z,75.29
2019-02-20T02:28:43.206Z,74.88
2019-02-20T02:29:43.160Z,75.09
2019-02-20T02:30:43.156Z,74.36
2019-02-20T02:31:43.153Z,74.77
2019-02-20T02:32:43.127Z,74.15
2019-02-20T02:33:43.123Z,74.98
2019-02-20T02:34:43.130Z,75.29
2019-02-20T02:35:43.091Z,74.57
2019-02-20T02:36:43.083Z,75.09
2019-02-20T02:37:43.072Z,75.09
2019-02-20T02:38:43.063Z,75.39
2019-02-20T02:39:43.078Z,74.57
2019-02-20T02:40:43.043Z,75.29
2019-02-20T02:41:44.787Z,75.09
2019-02-20T02:42:43.021Z,74.98
2019-02-20T02:43:43.009Z,74.98
2019-02-20T02:44:43.022Z,74.57
2019-02-20T02:45:42.986Z,75.09
2019-02-20T02:46:42.982Z,75.39
2019-02-20T02:47:42.962Z,74.98
2019-02-20T02:48:42.954Z,75.29
2019-02-20T02:49:42.987Z,75.29
2019-02-20T02:50:42.929Z,75.29
2019-02-20T02:51:42.959Z,75.29
2019-02-20T02:52:42.920Z,74.98
2019-02-20T02:53:42.895Z,75.60
2019-02-20T02:54:42.927Z,75.81
2019-02-20T02:55:42.874Z,75.70
2019-02-20T02:56:42.865Z,75.70
2019-02-20T02:57:42.853Z,75.49
2019-02-20T02:58:42.841Z,75.49
2019-02-20T02:59:42.851Z,76.05
2019-02-20T03:00:42.816Z,75.91
2019-02-20T03:01:42.806Z,75.91
2019-02-20T03:02:42.802Z,75.81
2019-02-20T03:03:42.783Z,75.49
2019-02-20T03:04:42.797Z,75.49
2019-02-20T03:05:42.760Z,74.98
2019-02-20T03:06:42.751Z,74.98
2019-02-20T03:07:42.737Z,74.57
2019-02-20T03:08:42.748Z,75.19
2019-02-20T03:09:42.743Z,75.19
2019-02-20T03:10:42.707Z,75.19
2019-02-20T03:11:42.695Z,75.39
2019-02-20T03:12:42.684Z,74.88
2019-02-20T03:13:42.671Z,74.88
2019-02-20T03:14:42.695Z,75.19
2019-02-20T03:15:42.676Z,75.29
2019-02-20T03:16:42.640Z,75.39
2019-02-20T03:17:42.628Z,75.29
2019-02-20T03:18:42.620Z,75.60
2019-02-20T03:19:42.636Z,75.81
2019-02-20T03:20:42.622Z,75.60
2019-02-20T03:21:42.584Z,75.60
2019-02-20T03:22:42.572Z,75.49
2019-02-20T03:23:42.560Z,75.60
2019-02-20T03:24:42.551Z,75.70
2019-02-20T03:25:42.583Z,75.70
2019-02-20T03:26:42.530Z,76.05
2019-02-20T03:27:42.522Z,76.01
2019-02-20T03:28:42.504Z,75.70
2019-02-20T03:29:42.496Z,75.81
2019-02-20T03:30:42.517Z,75.26
2019-02-20T03:31:42.486Z,75.81
2019-02-20T03:32:42.462Z,75.77
2019-02-20T03:33:42.659Z,75.60
2019-02-20T03:34:42.492Z,75.19
2019-02-20T03:35:42.451Z,75.29
2019-02-20T03:36:42.430Z,75.09
2019-02-20T03:37:42.405Z,75.39
2019-02-20T03:38:42.393Z,75.29
2019-02-20T03:39:42.383Z,75.39
2019-02-20T03:40:42.391Z,75.39
2019-02-20T03:41:42.361Z,75.19
2019-02-20T03:42:42.352Z,74.88
2019-02-20T03:43:42.366Z,75.70
2019-02-20T03:44:42.325Z,75.81
2019-02-20T03:45:42.336Z,75.91
2019-02-20T03:46:42.304Z,75.70
2019-02-20T03:47:42.302Z,75.57
2019-02-20T03:48:42.314Z,75.60
2019-02-20T03:49:42.268Z,75.29
2019-02-20T03:50:42.285Z,75.29
2019-02-20T03:51:42.246Z,75.39
2019-02-20T03:52:42.248Z,75.70
2019-02-20T03:53:51.214Z,75.49
2019-02-20T03:54:43.211Z,76.08
2019-02-20T03:55:42.247Z,75.60
2019-02-20T03:56:42.249Z,75.70
2019-02-20T03:57:42.180Z,75.49
2019-02-20T03:58:42.176Z,75.29
2019-02-20T03:59:42.158Z,75.49
2019-02-20T04:00:42.270Z,75.81
2019-02-20T04:01:42.136Z,75.60
2019-02-20T04:02:42.126Z,75.39
2019-02-20T04:03:42.115Z,75.39
2019-02-20T04:04:42.103Z,75.60
2019-02-20T04:05:42.094Z,75.81
2019-02-20T04:06:42.123Z,75.70
2019-02-20T04:07:42.069Z,75.91
2019-02-20T04:08:42.062Z,75.49
2019-02-20T04:09:42.053Z,75.81
2019-02-20T04:10:42.037Z,75.70
2019-02-20T04:11:42.054Z,75.49
2019-02-20T04:12:42.012Z,75.19
2019-02-20T04:13:42.007Z,75.26
2019-02-20T04:14:41.990Z,75.09
2019-02-20T04:15:41.990Z,74.77
2019-02-20T04:16:41.994Z,75.19
2019-02-20T04:17:41.959Z,75.05
2019-02-20T04:18:41.950Z,74.88
2019-02-20T04:19:41.934Z,75.19
2019-02-20T04:20:41.926Z,74.88
2019-02-20T04:21:41.949Z,75.09
2019-02-20T04:22:41.904Z,75.15
2019-02-20T04:23:41.896Z,74.98
2019-02-20T04:24:41.880Z,74.98
2019-02-20T04:25:41.870Z,74.95
2019-02-20T04:26:41.886Z,75.09
2019-02-20T04:27:41.850Z,75.19
2019-02-20T04:28:41.836Z,75.39
2019-02-20T04:29:41.823Z,75.09
2019-02-20T04:30:41.813Z,75.15
2019-02-20T04:31:41.867Z,74.84
2019-02-20T04:32:41.801Z,74.95
2019-02-20T04:33:41.783Z,75.05
2019-02-20T04:34:41.766Z,74.53
2019-02-20T04:35:42.528Z,75.19
2019-02-20T04:36:41.754Z,74.88
2019-02-20T04:37:41.770Z,74.95
2019-02-20T04:38:41.721Z,74.95
2019-02-20T04:39:41.713Z,75.05
2019-02-20T04:40:41.707Z,75.09
2019-02-20T04:41:41.691Z,75.05
2019-02-20T04:42:41.701Z,75.09
2019-02-20T04:43:41.666Z,74.88
2019-02-20T04:44:41.663Z,74.95
2019-02-20T04:45:41.644Z,75.09
2019-02-20T04:46:41.641Z,74.77
2019-02-20T04:47:41.648Z,75.29
2019-02-20T04:48:41.611Z,74.84
2019-02-20T04:49:41.615Z,75.19
2019-02-20T04:50:41.590Z,75.05
2019-02-20T04:51:41.576Z,74.84
2019-02-20T04:52:41.589Z,74.74
2019-02-20T04:53:41.555Z,75.19
2019-02-20T04:54:41.543Z,75.39
2019-02-20T04:55:41.533Z,75.19
2019-02-20T04:56:41.528Z,75.19
2019-02-20T04:57:41.535Z,75.29
2019-02-20T04:58:41.509Z,75.09
2019-02-20T04:59:41.488Z,75.39
2019-02-20T05:00:41.475Z,74.95
2019-02-20T05:01:41.464Z,74.98
2019-02-20T05:02:41.500Z,74.53
2019-02-20T05:03:41.455Z,74.77
2019-02-20T05:04:41.429Z,74.98
2019-02-20T05:05:41.418Z,75.49
2019-02-20T05:06:41.412Z,75.60
2019-02-20T05:07:41.398Z,75.91
2019-02-20T05:08:41.425Z,75.91
2019-02-20T05:09:41.378Z,75.91
2019-02-20T05:10:41.382Z,75.49
2019-02-20T05:11:41.355Z,75.70
2019-02-20T05:12:41.340Z,75.60
2019-02-20T05:13:41.366Z,75.70
2019-02-20T05:14:41.321Z,75.81
2019-02-20T05:15:41.314Z,75.91
2019-02-20T05:16:41.295Z,75.49
2019-02-20T05:17:41.285Z,75.81
2019-02-20T05:18:41.300Z,75.29
2019-02-20T05:19:41.266Z,75.81
2019-02-20T05:20:41.259Z,75.60
2019-02-20T05:21:41.245Z,75.70
2019-02-20T05:22:41.240Z,75.91
2019-02-20T05:23:42.723Z,75.60
2019-02-20T05:24:41.223Z,75.49
2019-02-20T05:25:41.211Z,75.60
2019-02-20T05:26:41.186Z,75.81
2019-02-20T05:27:41.184Z,76.01
2019-02-20T05:28:41.196Z,75.60
2019-02-20T05:29:41.159Z,75.84
2019-02-20T05:30:41.154Z,76.12
2019-02-20T05:31:41.165Z,75.60
2019-02-20T05:32:41.119Z,76.22
2019-02-20T05:33:41.133Z,75.70
2019-02-20T05:34:41.096Z,76.01
2019-02-20T05:35:41.088Z,76.12
2019-02-20T05:36:41.082Z,76.26
2019-02-20T05:37:41.064Z,76.12
2019-02-20T05:38:41.098Z,76.12
2019-02-20T05:39:41.044Z,76.01
2019-02-20T05:40:41.032Z,76.22
2019-02-20T05:41:41.035Z,76.32
2019-02-20T05:42:41.012Z,76.36
2019-02-20T05:43:41.025Z,76.43
2019-02-20T05:44:41.000Z,76.67
2019-02-20T05:45:40.978Z,76.98
2019-02-20T05:46:40.968Z,76.67
2019-02-20T05:47:40.957Z,76.56
2019-02-20T05:48:40.978Z,76.98
2019-02-20T05:49:40.956Z,76.46
2019-02-20T05:50:40.929Z,76.56
2019-02-20T05:51:40.919Z,76.98
2019-02-20T05:52:40.913Z,76.56
2019-02-20T05:53:40.890Z,76.46
2019-02-20T05:54:40.928Z,76.77
2019-02-20T05:55:40.867Z,76.67
2019-02-20T05:56:40.858Z,77.01
2019-02-20T05:57:40.852Z,76.67
2019-02-20T05:58:40.835Z,77.08
2019-02-20T05:59:40.858Z,76.98
2019-02-20T06:00:40.811Z,76.87
2019-02-20T06:01:40.799Z,76.70
2019-02-20T06:02:40.798Z,76.56
2019-02-20T06:03:40.776Z,76.67
2019-02-20T06:04:40.769Z,76.56
2019-02-20T06:05:40.786Z,76.77
2019-02-20T06:06:40.760Z,76.67
2019-02-20T06:07:40.734Z,76.77
2019-02-20T06:08:40.732Z,76.87
2019-02-20T06:09:40.746Z,76.77
2019-02-20T06:10:40.724Z,76.67
2019-02-20T06:11:40.689Z,76.36
2019-02-20T06:12:40.683Z,76.56
2019-02-20T06:13:40.669Z,76.77
2019-02-20T06:14:40.683Z,76.56
2019-02-20T06:15:40.671Z,76.67
2019-02-20T06:16:40.647Z,76.81
2019-02-20T06:17:40.644Z,77.33
2019-02-20T06:18:40.618Z,77.22
2019-02-20T06:19:40.622Z,77.33
2019-02-20T06:20:40.618Z,77.53
2019-02-20T06:21:40.580Z,77.53
2019-02-20T06:22:40.576Z,77.08
2019-02-20T06:23:40.557Z,77.64
2019-02-20T06:24:44.051Z,77.64
2019-02-20T06:25:40.603Z,77.64
2019-02-20T06:26:40.524Z,77.53
2019-02-20T06:27:40.513Z,77.53
2019-02-20T06:28:40.506Z,77.53
2019-02-20T06:29:40.508Z,76.87
2019-02-20T06:30:40.510Z,77.64
2019-02-20T06:31:40.475Z,77.53
2019-02-20T06:32:40.458Z,77.43
2019-02-20T06:33:40.468Z,77.08
2019-02-20T06:34:40.434Z,77.53
2019-02-20T06:35:40.423Z,77.53
2019-02-20T06:36:40.435Z,77.33
2019-02-20T06:37:40.404Z,77.74
2019-02-20T06:38:40.407Z,77.94
2019-02-20T06:39:40.381Z,77.84
2019-02-20T06:40:40.424Z,77.64
2019-02-20T06:41:40.396Z,77.33
2019-02-20T06:42:40.356Z,77.64
2019-02-20T06:43:40.337Z,77.43
2019-02-20T06:44:40.331Z,77.43
2019-02-20T06:45:40.317Z,77.43
2019-02-20T06:46:40.346Z,77.33
2019-02-20T06:47:40.294Z,77.74
2019-02-20T06:48:40.290Z,78.05
2019-02-20T06:49:40.283Z,77.94
2019-02-20T06:50:40.259Z,77.94
2019-02-20T06:51:40.273Z,77.33
2019-02-20T06:52:40.242Z,77.43
2019-02-20T06:53:40.225Z,78.05
2019-02-20T06:54:40.220Z,77.94
2019-02-20T06:55:40.209Z,78.05
2019-02-20T06:56:40.217Z,77.84
2019-02-20T06:57:40.183Z,77.84
2019-02-20T06:58:40.173Z,77.94
2019-02-20T06:59:40.161Z,77.70
2019-02-20T07:00:40.151Z,77.74
2019-02-20T07:01:40.193Z,77.91
2019-02-20T07:02:40.126Z,77.53
2019-02-20T07:03:40.118Z,77.64
2019-02-20T07:04:40.113Z,77.29
2019-02-20T07:05:40.106Z,77.43
2019-02-20T07:06:40.116Z,77.64
2019-02-20T07:07:40.088Z,77.53
2019-02-20T07:08:40.063Z,77.60
2019-02-20T07:09:40.059Z,77.64
2019-02-20T07:10:40.038Z,77.60
2019-02-20T07:11:40.065Z,77.53
2019-02-20T07:12:40.032Z,77.29
2019-02-20T07:13:40.061Z,77.19
2019-02-20T07:14:40.009Z,77.19
2019-02-20T07:15:39.992Z,77.08
2019-02-20T07:16:39.974Z,77.08
2019-02-20T07:17:39.989Z,76.67
2019-02-20T07:18:39.961Z,76.77
2019-02-20T07:19:39.946Z,76.98
2019-02-20T07:20:39.930Z,76.98
2019-02-20T07:21:39.926Z,77.08
2019-02-20T07:22:39.932Z,76.67
2019-02-20T07:23:39.899Z,76.53
2019-02-20T07:24:39.887Z,76.77
2019-02-20T07:25:39.878Z,76.87
2019-02-20T07:26:39.866Z,77.19
2019-02-20T07:27:39.876Z,77.43
2019-02-20T07:28:39.844Z,77.19
2019-02-20T07:29:39.832Z,77.19
2019-02-20T07:30:39.831Z,77.19
2019-02-20T07:31:39.814Z,77.39
2019-02-20T07:32:39.825Z,77.08
2019-02-20T07:33:39.788Z,77.08
2019-02-20T07:34:39.778Z,76.77
2019-02-20T07:35:39.777Z,77.08
2019-02-20T07:36:39.765Z,76.77
2019-02-20T07:37:39.770Z,76.56
2019-02-20T07:38:39.733Z,76.67
2019-02-20T07:39:39.724Z,76.53
2019-02-20T07:40:39.712Z,76.73
2019-02-20T07:41:39.698Z,76.53
2019-02-20T07:42:39.730Z,76.64
2019-02-20T07:43:39.675Z,76.43
2019-02-20T07:44:39.662Z,76.12
2019-02-20T07:45:39.660Z,75.77
2019-02-20T07:46:39.657Z,75.46
2019-02-20T07:47:39.633Z,75.84
2019-02-20T07:48:39.649Z,76.01
2019-02-20T07:49:39.611Z,76.32
2019-02-20T07:50:39.600Z,76.43
2019-02-20T07:51:39.587Z,75.91
2019-02-20T07:52:39.577Z,75.49
2019-02-20T07:53:39.596Z,75.91
2019-02-20T07:54:39.567Z,75.60
2019-02-20T07:55:39.545Z,75.60
2019-02-20T07:56:39.536Z,75.19
2019-02-20T07:57:39.543Z,75.70
2019-02-20T07:58:39.543Z,75.70
2019-02-20T07:59:39.506Z,75.49
2019-02-20T08:00:39.490Z,75.49
2019-02-20T08:01:39.477Z,75.91
2019-02-20T08:02:39.468Z,75.60
2019-02-20T08:03:39.486Z,76.01
2019-02-20T08:04:39.450Z,75.60
2019-02-20T08:05:39.440Z,75.70
2019-02-20T08:06:39.422Z,75.70
2019-02-20T08:07:39.428Z,74.57
2019-02-20T08:08:39.426Z,74.84
2019-02-20T08:09:39.388Z,74.63
2019-02-20T08:10:39.384Z,74.50
2019-02-20T08:11:39.377Z,73.88
2019-02-20T08:12:39.358Z,74.08
2019-02-20T08:13:39.677Z,73.88
2019-02-20T08:14:39.361Z,73.77
2019-02-20T08:15:39.322Z,73.85
2019-02-20T08:16:39.312Z,73.57
2019-02-20T08:17:39.299Z,73.54
2019-02-20T08:18:39.288Z,72.95
2019-02-20T08:19:39.300Z,72.81
2019-02-20T08:20:39.267Z,73.54
2019-02-20T08:21:39.255Z,72.61
2019-02-20T08:22:39.257Z,72.81
2019-02-20T08:23:39.233Z,72.50
2019-02-20T08:24:39.254Z,72.61
2019-02-20T08:25:39.212Z,72.61
2019-02-20T08:26:39.209Z,73.33
2019-02-20T08:27:39.189Z,72.61
2019-02-20T08:28:39.190Z,72.40
2019-02-20T08:29:39.203Z,72.61
2019-02-20T08:30:39.154Z,71.99
2019-02-20T08:31:39.144Z,71.85
2019-02-20T08:32:39.140Z,71.78
2019-02-20T08:33:39.129Z,71.34
2019-02-20T08:34:39.136Z,71.75
2019-02-20T08:35:39.108Z,71.75
2019-02-20T08:36:39.094Z,71.75
2019-02-20T08:37:39.086Z,71.82
2019-02-20T08:38:39.076Z,71.64
2019-02-20T08:39:39.082Z,70.89
2019-02-20T08:40:39.068Z,71.10
2019-02-20T08:41:39.035Z,71.20
2019-02-20T08:42:40.570Z,71.51
2019-02-20T08:43:39.027Z,71.10
2019-02-20T08:44:39.000Z,70.68
2019-02-20T08:46:39.041Z,69.96
2019-02-20T08:47:38.968Z,70.17
2019-02-20T08:48:38.957Z,70.37
2019-02-20T08:49:38.956Z,69.76
2019-02-20T08:50:38.964Z,70.58
2019-02-20T08:52:38.914Z,70.68
2019-02-20T08:53:38.903Z,70.89
2019-02-20T08:54:38.900Z,70.58
2019-02-20T08:55:39.002Z,70.37
2019-02-20T08:56:38.878Z,70.58
2019-02-20T08:57:38.866Z,70.55
2019-02-20T08:58:38.848Z,70.14
2019-02-20T08:59:38.836Z,69.93
2019-02-20T09:00:38.852Z,69.83
2019-02-20T09:01:38.820Z,69.38
2019-02-20T09:02:38.807Z,69.21
2019-02-20T09:03:38.798Z,69.93
2019-02-20T09:04:38.783Z,69.62
2019-02-20T09:05:38.781Z,69.28
2019-02-20T09:06:38.793Z,69.01
2019-02-20T09:07:38.750Z,68.87
2019-02-20T09:08:38.739Z,68.35
2019-02-20T09:09:38.744Z,68.66
2019-02-20T09:10:38.715Z,69.07
2019-02-20T09:11:38.741Z,68.56
2019-02-20T09:12:38.697Z,68.35
2019-02-20T09:13:38.689Z,68.25
2019-02-20T09:14:38.670Z,68.32
2019-02-20T09:15:38.660Z,68.22
2019-02-20T09:16:38.670Z,67.50
2019-02-20T09:17:38.642Z,67.47
2019-02-20T09:18:38.638Z,67.68
2019-02-20T09:19:38.631Z,67.57
2019-02-20T09:20:38.602Z,67.57
2019-02-20T09:21:38.627Z,67.36
2019-02-20T09:22:39.600Z,67.40
2019-02-20T09:23:38.571Z,67.09
2019-02-20T09:24:38.570Z,67.40
2019-02-20T09:25:41.565Z,67.36
2019-02-20T09:26:38.574Z,67.13
2019-02-20T09:27:38.532Z,66.99
2019-02-20T09:28:38.533Z,67.09
2019-02-20T09:29:38.509Z,67.57
2019-02-20T09:30:38.500Z,67.40
2019-02-20T09:31:38.514Z,67.50
2019-02-20T09:32:38.479Z,66.99
2019-02-20T09:33:38.457Z,67.19
2019-02-20T09:34:38.455Z,67.60
2019-02-20T09:35:38.452Z,67.26
2019-02-20T09:36:38.470Z,67.26
2019-02-20T09:37:38.446Z,67.16
2019-02-20T09:38:38.405Z,66.72
2019-02-20T09:39:38.398Z,66.20
2019-02-20T09:40:38.384Z,65.89
2019-02-20T09:41:38.410Z,65.89
2019-02-20T09:42:38.356Z,65.56
2019-02-20T09:43:38.385Z,64.70
2019-02-20T09:44:38.337Z,64.19
2019-02-20T09:45:41.835Z,63.75
2019-02-20T09:46:38.318Z,63.75
2019-02-20T09:47:38.341Z,62.62
2019-02-20T09:48:38.295Z,62.73
2019-02-20T09:49:38.278Z,62.73
2019-02-20T09:50:38.268Z,63.06
2019-02-20T09:51:38.257Z,63.47
2019-02-20T09:52:38.279Z,63.78
2019-02-20T09:53:38.250Z,63.06
2019-02-20T09:54:38.234Z,63.17
2019-02-20T09:55:38.221Z,62.73
2019-02-20T09:56:38.201Z,62.83
2019-02-20T09:57:38.241Z,62.39
2019-02-20T09:58:38.180Z,61.80
2019-02-20T09:59:38.185Z,61.87
2019-02-20T10:00:38.198Z,61.87
2019-02-20T10:01:38.148Z,61.98
2019-02-20T10:02:38.174Z,61.77
2019-02-20T10:03:38.131Z,61.74
2019-02-20T10:04:38.115Z,61.64
2019-02-20T10:05:38.106Z,61.41
2019-02-20T10:06:38.091Z,60.79
2019-02-20T10:07:38.115Z,60.79
2019-02-20T10:08:38.084Z,60.66
2019-02-20T10:09:38.071Z,60.07
2019-02-20T10:10:38.047Z,59.97
2019-02-20T10:11:38.040Z,59.74
2019-02-20T10:12:38.022Z,60.05
2019-02-20T10:13:38.041Z,58.48
2019-02-20T10:14:38.000Z,58.79
2019-02-20T10:15:38.003Z,58.38
2019-02-20T10:16:37.988Z,58.86
2019-02-20T10:17:37.967Z,57.64
2019-02-20T10:18:37.994Z,57.71
2019-02-20T10:19:37.949Z,57.40
2019-02-20T10:20:37.947Z,57.71
2019-02-20T10:21:37.923Z,57.51
2019-02-20T10:22:37.918Z,57.30
2019-02-20T10:23:37.969Z,57.33
2019-02-20T10:24:37.892Z,57.81
2019-02-20T10:25:37.891Z,57.38
2019-02-20T10:26:37.870Z,56.12
2019-02-20T10:27:37.861Z,55.15
2019-02-20T10:28:37.873Z,54.08
2019-02-20T10:29:37.834Z,54.74
2019-02-20T10:30:37.826Z,56.02
2019-02-20T10:31:37.813Z,56.99
2019-02-20T10:32:37.805Z,57.53
2019-02-20T10:33:37.836Z,58.28
2019-02-20T10:34:37.781Z,59.61
2019-02-20T10:35:37.770Z,59.53
2019-02-20T10:36:37.760Z,59.33
2019-02-20T10:37:37.748Z,59.12
2019-02-20T10:38:37.768Z,59.94
2019-02-20T10:39:37.732Z,60.05
2019-02-20T10:40:37.719Z,60.05
2019-02-20T10:41:37.707Z,60.05
2019-02-20T10:42:37.695Z,60.58
2019-02-20T10:43:37.730Z,60.89
2019-02-20T10:44:37.701Z,60.69
2019-02-20T10:45:37.668Z,60.15
2019-02-20T10:46:37.652Z,60.46
2019-02-20T10:47:37.641Z,59.94
2019-02-20T10:48:37.627Z,59.84
2019-02-20T10:49:37.646Z,59.94
2019-02-20T10:50:37.616Z,59.94
2019-02-20T10:51:37.611Z,59.94
2019-02-20T10:52:37.594Z,60.56
2019-02-20T10:53:37.574Z,60.86
2019-02-20T10:54:37.592Z,59.94
2019-02-20T10:55:37.556Z,60.25
2019-02-20T10:56:37.550Z,60.35
2019-02-20T10:57:37.542Z,60.38
2019-02-20T10:58:37.530Z,60.89
2019-02-20T10:59:37.538Z,60.49
2019-02-20T11:00:37.495Z,60.86
2019-02-20T11:01:37.494Z,60.35
2019-02-20T11:02:37.478Z,60.56
2019-02-20T11:03:37.467Z,60.46
2019-02-20T11:04:37.495Z,60.56
2019-02-20T11:05:37.449Z,60.46
2019-02-20T11:06:37.428Z,59.81
2019-02-20T11:07:37.415Z,59.74
2019-02-20T11:08:37.409Z,59.92
2019-02-20T11:09:37.415Z,59.84
2019-02-20T11:10:37.412Z,60.33
2019-02-20T11:11:37.381Z,60.63
2019-02-20T11:12:37.361Z,59.92
2019-02-20T11:13:37.352Z,59.84
2019-02-20T11:14:37.910Z,60.66
2019-02-20T11:15:37.366Z,60.42
2019-02-20T11:16:37.317Z,60.05
2019-02-20T11:17:37.579Z,59.74
2019-02-20T11:18:37.303Z,60.02
2019-02-20T11:19:37.312Z,59.41
2019-02-20T11:20:37.282Z,59.30
2019-02-20T11:21:37.262Z,59.00
2019-02-20T11:22:37.306Z,59.68
2019-02-20T11:23:37.239Z,62.45
2019-02-20T11:24:37.260Z,60.75
2019-02-20T11:25:37.250Z,58.29
2019-02-20T11:26:46.226Z,58.29
2019-02-20T11:27:39.545Z,58.58
2019-02-20T11:28:37.198Z,58.29
2019-02-20T11:29:37.189Z,58.91
2019-02-20T11:30:37.189Z,58.94
2019-02-20T11:31:37.156Z,58.12
2019-02-20T11:32:37.153Z,57.92
2019-02-20T11:33:37.134Z,58.45
2019-02-20T11:34:37.127Z,60.74
2019-02-20T11:35:37.160Z,58.97
2019-02-20T11:36:37.095Z,58.66
2019-02-20T11:37:37.086Z,58.12
2019-02-20T11:38:37.074Z,57.89
2019-02-20T11:39:37.897Z,57.56
2019-02-20T11:40:37.054Z,57.68
2019-02-20T11:41:37.070Z,58.09
2019-02-20T11:42:37.034Z,58.29
2019-02-20T11:43:37.019Z,58.20
2019-02-20T11:44:37.010Z,58.22
2019-02-20T11:45:37.024Z,58.29
2019-02-20T11:46:37.022Z,58.29
2019-02-20T11:47:36.980Z,57.99
2019-02-20T11:48:36.965Z,57.86
2019-02-20T11:49:36.978Z,57.66
2019-02-20T11:50:36.975Z,57.25
2019-02-20T11:51:36.937Z,57.22
2019-02-20T11:52:38.616Z,57.12
2019-02-20T11:53:37.487Z,57.25
2019-02-20T11:54:36.901Z,57.97
2019-02-20T11:55:36.914Z,58.09
2019-02-20T11:56:36.877Z,58.20
2019-02-20T11:57:36.901Z,59.32
2019-02-20T11:58:36.854Z,59.32
2019-02-20T11:59:36.846Z,58.40
2019-02-20T12:00:36.839Z,59.01
2019-02-20T12:01:36.854Z,58.07
2019-02-20T12:02:37.652Z,58.61
2019-02-20T12:03:36.801Z,58.89
2019-02-20T12:04:36.809Z,58.48
2019-02-20T12:05:36.792Z,57.76
2019-02-20T12:06:36.958Z,57.84
2019-02-20T12:07:36.777Z,58.04
2019-02-20T12:08:36.746Z,58.04
2019-02-20T12:09:36.738Z,57.93
2019-02-20T12:10:36.749Z,58.58
2019-02-20T12:11:36.722Z,58.34
2019-02-20T12:12:36.746Z,58.34
2019-02-20T12:13:36.686Z,58.25
2019-02-20T12:14:36.675Z,58.48
2019-02-20T12:15:36.666Z,58.91
2019-02-20T12:16:36.655Z,59.09
2019-02-20T12:17:36.667Z,59.09
2019-02-20T12:18:36.638Z,59.09
2019-02-20T12:19:36.620Z,58.65
2019-02-20T12:20:36.609Z,57.93
2019-02-20T12:21:36.598Z,57.60
2019-02-20T12:22:36.616Z,57.27
2019-02-20T12:23:37.056Z,57.50
2019-02-20T12:24:36.584Z,58.01
2019-02-20T12:25:36.557Z,57.91
2019-02-20T12:26:36.542Z,57.91
2019-02-20T12:27:36.556Z,57.17
2019-02-20T12:28:36.520Z,57.04
2019-02-20T12:29:36.507Z,55.43
2019-02-20T12:30:38.019Z,53.37
2019-02-20T12:31:36.492Z,53.85
2019-02-20T12:32:36.511Z,52.43
2019-02-20T12:33:36.474Z,53.57
2019-02-20T12:34:36.451Z,52.10
2019-02-20T12:35:36.439Z,51.75
2019-02-20T12:36:36.443Z,51.67
2019-02-20T12:37:36.442Z,51.56
2019-02-20T12:38:37.251Z,51.31
2019-02-20T12:39:36.394Z,50.70
2019-02-20T12:40:36.386Z,49.64
2019-02-20T12:41:36.371Z,49.33
2019-02-20T12:42:36.395Z,49.03
2019-02-20T12:43:36.369Z,49.52
2019-02-20T12:44:36.394Z,49.08
2019-02-20T12:45:36.337Z,49.74
2019-02-20T12:46:36.317Z,49.46
2019-02-20T12:47:36.305Z,50.83
2019-02-20T12:48:36.333Z,53.88
2019-02-20T12:49:36.283Z,54.21
2019-02-20T12:50:36.275Z,55.56
2019-02-20T12:51:36.269Z,55.69
2019-02-20T12:52:36.249Z,56.23
2019-02-20T12:53:36.277Z,56.71
2019-02-20T12:54:36.229Z,56.43